CheckWX is a tool to help pilots better visualize weather data.  It is not intended as a substitute for an official pre-flight weather briefing.

09:23:01 UTC

KEWN METAR
Coastal Carolina Regional Airport
New Bern, North Carolina, USA
Current

29 mins ago

KEWN 280854Z AUTO 32008KT 10SM OVC050 07/05 A2987 RMK AO2 SLP114 60000 T00670050 51009
Observed
Jan-28 @ 08:54 UTC
Wind
  • 320° at 8 KTS
Visibility
10 SM
Flight Rules
VFR
Cloud Levels
  • Overcast at 5,000' AGL
Temperature
C / 45°F
Dewpoint
C / 41°F
Humidity
87%
Altimeter
29.87" Hg
Pressure
1011.52 hPa
Previous

1 hour ago

KEWN 280754Z AUTO 30004KT 10SM FEW049 06/05 A2986 RMK AO2 SLP112 T00610050
Observed
Jan-28 @ 07:54 UTC
Wind
  • 300° at 4 KTS
Visibility
10 SM
Flight Rules
VFR
Cloud Levels
  • Few at 4,900' AGL
Temperature
C / 43°F
Dewpoint
C / 41°F
Humidity
93%
Altimeter
29.86" Hg
Pressure
1011.22 hPa
Previous

2 hours ago

KEWN 280654Z AUTO 29005KT 10SM FEW041 07/06 A2985 RMK AO2 RAE11 SLP108 P0000 T00720056
Observed
Jan-28 @ 06:54 UTC
Wind
  • 290° at 5 KTS
Visibility
10 SM
Flight Rules
VFR
Cloud Levels
  • Few at 4,100' AGL
Temperature
C / 45°F
Dewpoint
C / 43°F
Humidity
93%
Altimeter
29.85" Hg
Pressure
1010.82 hPa
Current Rain
0.01"